weather.gov     
National Weather Service

Terminal Aerodrome Forecast
NWS Homepage
This page is being discontinued on March 12, 2014.
The same data is available at this site. Please update your bookmarks.
Thank you, and we apologize for the inconvenience.
Please send an email to SR-SRH.Webmaster@noaa.gov with any concerns.


Current Version
Previous Version:    01  02  03  04  05  06  07  08  09  10  11  12  13  14  15  16  17  18  19  20  21  22  23  24  25  26  27  28  29  30  
   31  32  33  34  35  36  37  38  39  40  41  42  43  44  45  46  47  48  49  
[Printable]
092
FTUS45 KTFX 171100
TAFCTB
TAF
KCTB 171131Z 1712/1812 VRB05KT P6SM SCT050 BKN080
      TEMPO 1712/1714 1/4SM FZFG VV002
     FM171400 20007KT P6SM SCT070 BKN100
     FM171700 22010G20KT P6SM SCT050 BKN080
     FM180200 22009KT P6SM SCT050 BKN070 PROB30 1807/1812 -SHRA
      BKN040=


U.S. Dept. of Commerce
NOAA National Weather Service
1325 East West Highway
Silver Spring, MD 20910
E-mail: w-nws.webmaster@noaa.gov
Page last modified: May 16, 2007
NATIONAL WEATHER SERVICE: for Safety, for Work, for Fun - FOR LIFE